Pride Of Canterbury — MPQZ6 — position and weather

sailwx.info

Track history (hours):
 
Tides and Currents Weather Stations Pressure Air Temp Water Temp Dewpoint Dewpoint Depression Visibility Wind Speed Wind Dir Waves Ship Positions

Pride Of Canterbury

Operator: P & O Ferries

Last reported at 2018-Nov-11 02:31 UTC. Time now 2018-Nov-18 16:54 UTC.
Position N 50°58' E 001°52'.

Length 180 m; draft 5.7 m.

Type: Passenger vessel. MMSI: 232001060.

Date/timePositionNaut miles runAvg speedWind from/ knotsBaromVisibWave heightAir tempDewpointWater temp
2018-Nov-11 02:31N 50°58' E 001°52'0 0.0
2018-Nov-11 02:02N 50°58' E 001°52'0 0.0
2018-Nov-11 01:32N 50°58' E 001°52'0 0.0
2018-Nov-11 01:01N 50°58' E 001°52'0 0.0
2018-Nov-11 00:32N 50°58' E 001°52'0 0.0
2018-Nov-10 23:58N 50°58' E 001°52'0 0.0
2018-Nov-10 23:22N 50°58' E 001°52'0 0.0
2018-Nov-10 23:02N 50°58' E 001°52'0 0.0
2018-Nov-10 22:32N 50°58' E 001°52'0 0.0
2018-Nov-10 21:59N 50°58' E 001°52'0 0.0
2018-Nov-10 21:31N 50°58' E 001°52'0 0.0
2018-Nov-10 20:50N 50°58' E 001°52'0 0.0
2018-Nov-10 20:13N 50°58' E 001°52'0 0.0
2018-Nov-10 20:01N 50°58' E 001°52'0 0.2
2018-Nov-10 19:32N 50°58' E 001°52'0 0.0
2018-Nov-10 19:02N 50°58' E 001°52'1 1.3
2018-Nov-10 18:32N 50°58' E 001°51'815.5
2018-Nov-10 18:01N 50°60' E 001°38'918.5
2018-Nov-10 17:32N 51°05' E 001°27'5 8.4
2018-Nov-10 16:57N 51°07' E 001°20'0 0.0
2018-Nov-10 16:32N 51°07' E 001°20'612.0
2018-Nov-10 16:02N 51°06' E 001°29'1019.5
2018-Nov-10 15:32N 50°60' E 001°41'611.6
2018-Nov-10 14:59N 50°58' E 001°51'1 1.4
2018-Nov-10 14:32N 50°58' E 001°50'1019.3
2018-Nov-10 14:02N 51°00' E 001°35'918.3
2018-Nov-10 13:32N 51°06' E 001°24'3 5.7
2018-Nov-10 13:02N 51°07' E 001°20'0 0.5
2018-Nov-10 12:33N 51°07' E 001°20'815.9
2018-Nov-10 12:03N 51°05' E 001°33'918.6
2018-Nov-10 11:32N 50°59' E 001°43'5 8.5
2018-Nov-10 10:58N 50°58' E 001°51'1 1.4
2018-Nov-10 10:33N 50°58' E 001°50'918.6
2018-Nov-10 10:03N 50°58' E 001°35'714.7
2018-Nov-10 09:33N 51°03' E 001°27'611.6
2018-Nov-10 09:01N 51°07' E 001°20'0 0.0
2018-Nov-10 08:25N 51°07' E 001°20'0 0.0
2018-Nov-10 07:20N 51°07' E 001°20'310.4
2018-Nov-10 07:02N 51°07' E 001°25'815.6
2018-Nov-10 06:32N 51°03' E 001°36'815.9
2018-Nov-10 06:03N 50°58' E 001°45'4 7.1
2018-Nov-10 05:32N 50°58' E 001°51'0 0.0
2018-Nov-10 05:02N 50°58' E 001°51'4 8.9
2018-Nov-10 04:32N 50°58' E 001°44'918.0
2018-Nov-10 04:02N 51°03' E 001°32'917.5
2018-Nov-10 03:32N 51°07' E 001°20'0 0.2
2018-Nov-10 03:00N 51°07' E 001°20'0 0.1
2018-Nov-10 02:32N 51°07' E 001°20'3 5.9
2018-Nov-10 02:03N 51°07' E 001°25'611.4
2018-Nov-10 01:33N 51°04' E 001°33'917.2
2018-Nov-10 01:03N 50°59' E 001°43'5 9.8
2018-Nov-10 00:30N 50°58' E 001°52'0 0.0
2018-Nov-09 23:57N 50°58' E 001°52'1 2.2
2018-Nov-09 23:32N 50°58' E 001°50'919.0
2018-Nov-09 23:02N 50°60' E 001°36'816.7
2018-Nov-09 22:33N 51°05' E 001°25'4 6.7
2018-Nov-09 21:57N 51°07' E 001°20'0 0.0
2018-Nov-09 21:32N 51°07' E 001°20'0 0.3
2018-Nov-09 20:59N 51°07' E 001°20'715.7
2018-Nov-09 20:32N 51°06' E 001°31'917.1
2018-Nov-09 20:02N 51°00' E 001°41'611.6
2018-Nov-09 19:30N 50°58' E 001°51'0 0.0
2018-Nov-09 19:00N 50°58' E 001°51'510.4
2018-Nov-09 18:32N 50°58' E 001°43'917.2
2018-Nov-09 18:03N 51°02' E 001°32'816.5
2018-Nov-09 17:32N 51°07' E 001°21'1 1.1
2018-Nov-09 17:01N 51°07' E 001°20'0 0.3
2018-Nov-09 16:28N 51°07' E 001°20'614.7
2018-Nov-09 16:02N 51°05' E 001°29'918.2
2018-Nov-09 15:32N 50°60' E 001°41'612.4
2018-Nov-09 15:02N 50°58' E 001°51'0 0.1
2018-Nov-09 14:28N 50°58' E 001°51'0 0.7
2018-Nov-09 14:02N 50°58' E 001°51'917.5
2018-Nov-09 13:32N 50°60' E 001°37'917.6
2018-Nov-09 13:02N 51°05' E 001°26'4 8.8
2018-Nov-09 12:32N 51°07' E 001°20'0 0.1
2018-Nov-09 12:02N 51°07' E 001°20'611.5
2018-Nov-09 11:33N 51°06' E 001°29'1019.2
2018-Nov-09 11:02N 51°00' E 001°41'7 8.4
2018-Nov-09 10:16N 50°58' E 001°51'0 0.0
2018-Nov-09 09:58N 50°58' E 001°51'2 4.6
2018-Nov-09 09:32N 50°58' E 001°48'816.7
2018-Nov-09 09:02N 51°00' E 001°35'917.5
2018-Nov-09 08:32N 51°06' E 001°24'3 6.2
2018-Nov-09 08:02N 51°07' E 001°20'0 0.0
2018-Nov-09 07:32N 51°07' E 001°20'2 4.2
2018-Nov-09 07:02N 51°07' E 001°23'816.7
2018-Nov-09 06:32N 51°03' E 001°35'816.9
2018-Nov-09 06:03N 50°58' E 001°46'3 6.6
2018-Nov-09 05:32N 50°58' E 001°51'0 0.0
2018-Nov-09 05:02N 50°58' E 001°51'2 4.4
2018-Nov-09 04:32N 50°58' E 001°47'715.2
2018-Nov-09 04:03N 51°00' E 001°36'816.1
2018-Nov-09 03:32N 51°05' E 001°26'4 8.6
2018-Nov-09 03:03N 51°07' E 001°20'0 0.0
2018-Nov-09 02:32N 51°07' E 001°20'0 0.2
2018-Nov-09 02:02N 51°07' E 001°20'713.4
2018-Nov-09 01:32N 51°05' E 001°30'815.5
2018-Nov-09 01:02N 51°00' E 001°40'713.4
2018-Nov-09 00:32N 50°58' E 001°50'0 0.8
2018-Nov-08 23:57N 50°58' E 001°51'1 1.2
2018-Nov-08 23:28N 50°58' E 001°50'919.2
2018-Nov-08 23:00N 51°00' E 001°36'918.9
2018-Nov-08 22:32N 51°06' E 001°25'4 7.2
2018-Nov-08 22:02N 51°07' E 001°20'0 0.3
2018-Nov-08 21:32N 51°07' E 001°20'816.4
2018-Nov-08 21:02N 51°04' E 001°32'1019.7
2018-Nov-08 20:33N 50°58' E 001°45'4 7.4
2018-Nov-08 20:01N 50°58' E 001°51'0 0.0
2018-Nov-08 19:32N 50°58' E 001°51'0 0.0
2018-Nov-08 19:02N 50°58' E 001°51'510.1
2018-Nov-08 18:32N 50°58' E 001°43'917.1
2018-Nov-08 18:02N 51°01' E 001°30'917.5
2018-Nov-08 17:33N 51°07' E 001°21'1 0.9
2018-Nov-08 16:59N 51°07' E 001°20'0 0.2
2018-Nov-08 16:31N 51°07' E 001°20'816.9
2018-Nov-08 16:02N 51°04' E 001°32'919.0
2018-Nov-08 15:32N 50°58' E 001°44'4 6.9
2018-Nov-08 14:54N 50°58' E 001°51'0 0.0
2018-Nov-08 14:26N 50°58' E 001°51'3 8.6
2018-Nov-08 14:02N 50°58' E 001°46'1019.2
2018-Nov-08 13:32N 51°02' E 001°32'918.1
2018-Nov-08 13:02N 51°07' E 001°20'0 0.5
2018-Nov-08 12:09N 51°07' E 001°20'0 1.0
2018-Nov-08 12:03N 51°07' E 001°20'815.3
2018-Nov-08 11:32N 51°04' E 001°31'917.5
2018-Nov-08 11:02N 50°59' E 001°43'5 5.3
2018-Nov-08 10:03N 50°58' E 001°51'0 0.0
2018-Nov-08 09:51N 50°58' E 001°51'1 4.2
2018-Nov-08 09:32N 50°58' E 001°49'918.1
2018-Nov-08 09:02N 50°60' E 001°35'917.6
2018-Nov-08 08:32N 51°05' E 001°24'3 6.0
2018-Nov-08 08:02N 51°07' E 001°20'0 0.1
2018-Nov-08 07:31N 51°07' E 001°20'715.5
2018-Nov-08 07:02N 51°05' E 001°32'1019.4
2018-Nov-08 06:32N 50°59' E 001°44'5 7.9
2018-Nov-08 05:56N 50°58' E 001°51'0 0.3
2018-Nov-08 05:28N 50°58' E 001°51'614.0
2018-Nov-08 05:02N 50°58' E 001°41'917.9
2018-Nov-08 04:32N 51°03' E 001°30'713.6
2018-Nov-08 04:00N 51°07' E 001°20'0 0.0
2018-Nov-08 03:31N 51°07' E 001°20'2 4.7
2018-Nov-08 03:02N 51°07' E 001°24'714.1
2018-Nov-08 02:32N 51°04' E 001°34'917.8
2018-Nov-08 02:02N 50°58' E 001°45'4 7.4
2018-Nov-08 01:27N 50°58' E 001°52'0 0.0
2018-Nov-08 01:00N 50°58' E 001°52'0 0.0
2018-Nov-08 00:43N 50°58' E 001°52'0 0.0
2018-Nov-08 00:32N 50°58' E 001°52'0 0.0
2018-Nov-08 00:27N 50°58' E 001°52'410.8
2018-Nov-08 00:03N 50°58' E 001°45'1019.5
2018-Nov-07 23:32N 51°02' E 001°31'816.8
2018-Nov-07 23:02N 51°07' E 001°20'0 0.0
2018-Nov-07 22:23N 51°07' E 001°20'0 0.8
2018-Nov-07 22:02N 51°07' E 001°20'714.7
2018-Nov-07 21:32N 51°08' E 001°32'917.9
2018-Nov-07 21:02N 51°01' E 001°41'713.5
2018-Nov-07 20:32N 50°58' E 001°51'0 0.1
2018-Nov-07 20:01N 50°58' E 001°51'1 2.1
2018-Nov-07 19:32N 50°58' E 001°49'612.9
2018-Nov-07 19:02N 50°59' E 001°39'917.4
2018-Nov-07 18:32N 51°04' E 001°28'611.8
2018-Nov-07 18:01N 51°07' E 001°20'0 0.0
2018-Nov-07 17:32N 51°07' E 001°20'0 0.0
2018-Nov-07 17:02N 51°07' E 001°20'3 7.1
2018-Nov-07 16:33N 51°06' E 001°25'918.6
2018-Nov-07 16:03N 51°01' E 001°38'917.3
2018-Nov-07 15:32N 50°58' E 001°51'0 0.6
2018-Nov-07 14:55N 50°58' E 001°51'1 1.9
2018-Nov-07 14:33N 50°58' E 001°50'917.5
2018-Nov-07 14:02N 51°01' E 001°36'917.9
2018-Nov-07 13:32N 51°06' E 001°25'3 6.9
2018-Nov-07 13:03N 51°07' E 001°20'0 0.0
2018-Nov-07 12:28N 51°07' E 001°20'2 4.8
2018-Nov-07 12:02N 51°07' E 001°23'713.9
2018-Nov-07 11:32N 51°06' E 001°34'918.2
2018-Nov-07 11:02N 50°59' E 001°44'5 8.8
2018-Nov-07 10:31N 50°58' E 001°51'0 0.3
2018-Nov-07 09:44N 50°58' E 001°51'315.6
2018-Nov-07 09:32N 50°58' E 001°46'918.0
2018-Nov-07 09:02N 51°02' E 001°33'817.0
2018-Nov-07 08:32N 51°07' E 001°22'1 1.3
2018-Nov-07 07:32N 51°07' E 001°20'3 6.0
2018-Nov-07 07:02N 51°07' E 001°25'816.1
2018-Nov-07 06:32N 51°03' E 001°36'815.9
2018-Nov-07 06:02N 50°58' E 001°46'3 6.1
2018-Nov-07 05:30N 50°58' E 001°51'0 0.0
2018-Nov-07 05:02N 50°58' E 001°51'2 4.2
2018-Nov-07 04:32N 50°58' E 001°48'0 0.0
2018-Nov-06 23:30N 50°58' E 001°48'918.3
2018-Nov-06 22:59N 51°01' E 001°34'1111.0
2018-Nov-06 22:00N 51°07' E 001°20'0 0.0
2018-Nov-06 21:30N 51°07' E 001°20'0 1.1
2018-Nov-06 21:03N 51°07' E 001°21'113.0
2018-Nov-06 21:00N 51°07' E 001°22'815.4
2018-Nov-06 20:31N 51°04' E 001°33'716.1
2018-Nov-06 20:04N 50°59' E 001°40'118.5
2018-Nov-06 20:00N 50°58' E 001°42'611.7
2018-Nov-06 19:30N 50°58' E 001°51'0 0.0
2018-Nov-06 19:02N 50°58' E 001°51'0 0.0
2018-Nov-06 18:57N 50°58' E 001°51'4 9.1
2018-Nov-06 18:30N 50°58' E 001°44'817.3
2018-Nov-06 18:04N 51°01' E 001°33'117.9
2018-Nov-06 18:01N 51°02' E 001°32'917.4
2018-Nov-06 17:29N 51°07' E 001°21'0 1.2
2018-Nov-06 17:03N 51°07' E 001°20'0 0.0
2018-Nov-06 17:00N 51°07' E 001°20'0 0.1
2018-Nov-06 16:30N 51°07' E 001°20'613.7
2018-Nov-06 16:03N 51°05' E 001°29'118.8
2018-Nov-06 16:00N 51°05' E 001°30'918.5
2018-Nov-06 15:30N 50°59' E 001°43'511.1
2018-Nov-06 15:01N 50°58' E 001°51'0 0.0
2018-Nov-06 15:00N 50°58' E 001°51'0 0.0
2018-Nov-06 14:29N 50°58' E 001°51'2 5.6
2018-Nov-06 14:03N 50°58' E 001°47'119.1
2018-Nov-06 14:01N 50°58' E 001°46'918.8
2018-Nov-06 13:30N 51°02' E 001°32'817.6
2018-Nov-06 13:03N 51°06' E 001°22'119.4
2018-Nov-06 13:00N 51°07' E 001°20'1 1.5
2018-Nov-06 12:30N 51°07' E 001°20'2 4.4
2018-Nov-06 12:03N 51°07' E 001°23'115.5
2018-Nov-06 12:00N 51°07' E 001°24'917.8
2018-Nov-06 11:30N 51°03' E 001°37'817.2
2018-Nov-06 11:04N 50°58' E 001°47'116.2
2018-Nov-06 11:00N 50°58' E 001°48'2 2.9
2018-Nov-06 10:21N 50°58' E 001°51'0 0.2
2018-Nov-06 09:39N 50°58' E 001°51'110.2
2018-Nov-06 09:30N 50°58' E 001°49'920.7
2018-Nov-06 09:03N 50°58' E 001°34'119.7
2018-Nov-06 09:01N 50°58' E 001°32'918.0
2018-Nov-06 08:30N 51°06' E 001°24'3 6.8
2018-Nov-06 08:03N 51°07' E 001°20'0 0.0
2018-Nov-06 08:00N 51°07' E 001°20'0 0.0
2018-Nov-06 07:30N 51°07' E 001°20'2 3.5
2018-Nov-06 07:04N 51°07' E 001°22'118.4
2018-Nov-06 07:01N 51°07' E 001°24'1019.5
2018-Nov-06 06:30N 51°02' E 001°37'818.0
2018-Nov-06 06:03N 50°58' E 001°49'117.0
2018-Nov-06 06:01N 50°58' E 001°50'1 1.2
2018-Nov-06 05:30N 50°58' E 001°51'0 0.0
2018-Nov-06 05:03N 50°58' E 001°51'0 0.0
2018-Nov-06 04:59N 50°58' E 001°51'0 0.4
2018-Nov-06 04:29N 50°58' E 001°51'715.2
2018-Nov-06 04:03N 50°59' E 001°40'117.5
2018-Nov-06 04:00N 50°59' E 001°39'918.7
2018-Nov-06 03:30N 51°04' E 001°27'5 8.3
2018-Nov-06 02:52N 51°07' E 001°20'0 0.0
2018-Nov-06 02:28N 51°07' E 001°20'0 0.7
2018-Nov-06 02:02N 51°07' E 001°20'0 1.8
2018-Nov-06 02:01N 51°07' E 001°20'815.9
2018-Nov-06 01:30N 51°05' E 001°32'1413.5
2018-Nov-06 00:30N 50°58' E 001°51'0 0.0
2018-Nov-05 23:30N 50°58' E 001°51'4 9.1
2018-Nov-05 23:03N 50°58' E 001°45'121.0
2018-Nov-05 23:01N 50°58' E 001°43'917.5
2018-Nov-05 22:30N 51°02' E 001°31'817.2
2018-Nov-05 22:04N 51°07' E 001°21'1 7.4
2018-Nov-05 21:58N 51°07' E 001°20'0 0.0
2018-Nov-05 21:30N 51°07' E 001°20'0 0.0
2018-Nov-05 21:03N 51°07' E 001°20'0 0.2
2018-Nov-05 20:59N 51°07' E 001°20'613.4
2018-Nov-05 20:30N 51°06' E 001°30'817.7
2018-Nov-05 20:03N 51°01' E 001°39'119.3
2018-Nov-05 20:00N 51°00' E 001°40'713.9
2018-Nov-05 19:30N 50°58' E 001°51'0 0.1
2018-Nov-05 18:59N 50°58' E 001°51'4 9.3
2018-Nov-05 18:30N 50°58' E 001°44'817.2
2018-Nov-05 18:03N 51°01' E 001°33'119.2
2018-Nov-05 18:00N 51°02' E 001°32'917.5
2018-Nov-05 17:30N 51°07' E 001°20'1 1.6
2018-Nov-05 17:03N 51°07' E 001°20'0 0.0
2018-Nov-05 17:00N 51°07' E 001°20'0 0.0
2018-Nov-05 16:30N 51°07' E 001°20'510.5
2018-Nov-05 16:03N 51°06' E 001°27'120.2
2018-Nov-05 16:00N 51°06' E 001°29'1019.6
2018-Nov-05 15:30N 51°00' E 001°41'613.9
2018-Nov-05 15:03N 50°58' E 001°51'0 2.0
2018-Nov-05 15:00N 50°58' E 001°51'0 0.0
2018-Nov-05 14:30N 50°58' E 001°51'1 2.2
2018-Nov-05 14:03N 50°58' E 001°50'116.1
2018-Nov-05 14:01N 50°58' E 001°48'1718.2
2018-Nov-05 13:03N 51°05' E 001°23'120.3
2018-Nov-05 13:00N 51°06' E 001°22'2 2.9
2018-Nov-05 12:22N 51°07' E 001°20'0 0.8
2018-Nov-05 12:02N 51°07' E 001°20'0 0.9
2018-Nov-05 12:00N 51°07' E 001°20'815.6
2018-Nov-05 11:30N 51°05' E 001°32'919.1
2018-Nov-05 11:04N 50°60' E 001°42'118.5
2018-Nov-05 11:00N 50°59' E 001°43'5 9.0
2018-Nov-05 10:27N 50°58' E 001°51'0 0.0
2018-Nov-05 10:00N 50°58' E 001°51'1 1.7
2018-Nov-05 09:31N 50°58' E 001°50'918.9
2018-Nov-05 09:03N 51°00' E 001°36'119.1
2018-Nov-05 09:00N 51°01' E 001°35'1019.3
2018-Nov-05 08:30N 51°06' E 001°23'2 4.2
2018-Nov-05 08:01N 51°07' E 001°20'0 0.0
2018-Nov-05 08:00N 51°07' E 001°20'0 0.0
2018-Nov-05 07:30N 51°07' E 001°20'0 0.0
2018-Nov-05 07:03N 51°07' E 001°20'0 0.0
2018-Nov-05 07:00N 51°07' E 001°20'0 0.0
2018-Nov-05 06:30N 51°07' E 001°20'0 0.0
2018-Nov-05 06:03N 51°07' E 001°20'0 0.0
2018-Nov-05 06:00N 51°07' E 001°20'0 0.0
2018-Nov-05 05:30N 51°07' E 001°20'0 0.0
2018-Nov-05 05:03N 51°07' E 001°20'0 0.0
2018-Nov-05 04:59N 51°07' E 001°20'0 0.0
2018-Nov-05 04:29N 51°07' E 001°20'0 0.0
2018-Nov-05 03:58N 51°07' E 001°20'0 0.0
2018-Nov-05 03:30N 51°07' E 001°20'0 0.0
2018-Nov-05 03:03N 51°07' E 001°20'0 0.0
2018-Nov-05 03:00N 51°07' E 001°20'0 0.0
2018-Nov-05 02:30N 51°07' E 001°20'0 0.3
2018-Nov-05 02:03N 51°07' E 001°20'0 2.8
2018-Nov-05 02:01N 51°07' E 001°20'713.4
2018-Nov-05 01:30N 51°05' E 001°30'919.6
2018-Nov-05 01:03N 50°59' E 001°41'119.6
2018-Nov-05 01:00N 50°59' E 001°43'511.0
2018-Nov-05 00:30N 50°58' E 001°51'0 0.0
2018-Nov-05 00:03N 50°58' E 001°51'0 0.0
2018-Nov-05 00:00N 50°58' E 001°51'0 0.0
2018-Nov-04 23:30N 50°58' E 001°51'3 7.3
2018-Nov-04 23:03N 50°58' E 001°46'119.2
2018-Nov-04 23:00N 50°58' E 001°44'1019.2
2018-Nov-04 22:31N 51°03' E 001°31'817.8
2018-Nov-04 22:03N 51°07' E 001°20'0 9.2
2018-Nov-04 22:00N 51°07' E 001°20'0 0.9
2018-Nov-04 21:30N 51°07' E 001°20'0 0.0
2018-Nov-04 21:03N 51°07' E 001°20'0 0.0
2018-Nov-04 21:00N 51°07' E 001°20'611.9
2018-Nov-04 20:31N 51°05' E 001°29'919.1
2018-Nov-04 20:03N 51°00' E 001°40'118.9
2018-Nov-04 20:01N 50°60' E 001°41'612.1
2018-Nov-04 19:29N 50°58' E 001°51'0 0.0
2018-Nov-04 18:58N 50°58' E 001°51'2 4.3
2018-Nov-04 18:30N 50°58' E 001°48'817.9
2018-Nov-04 18:04N 50°60' E 001°35'119.0
2018-Nov-04 18:01N 51°00' E 001°34'918.8
2018-Nov-04 17:30N 51°06' E 001°23'2 2.2
2018-Nov-04 16:41N 51°07' E 001°20'1 3.1
2018-Nov-04 16:30N 51°07' E 001°21'818.4
2018-Nov-04 16:04N 51°04' E 001°33'119.6
2018-Nov-04 16:01N 51°03' E 001°34'1019.1
2018-Nov-04 15:31N 50°58' E 001°47'3 4.9
2018-Nov-04 14:58N 50°58' E 001°51'0 0.7
2018-Nov-04 14:20N 50°58' E 001°50'415.8
2018-Nov-04 14:03N 50°58' E 001°43'117.9
2018-Nov-04 14:00N 50°58' E 001°42'918.7
2018-Nov-04 13:31N 51°03' E 001°30'716.1
2018-Nov-04 13:03N 51°07' E 001°20'0 0.0
2018-Nov-04 13:00N 51°07' E 001°20'0 0.0
2018-Nov-04 12:30N 51°07' E 001°20'1 2.0
2018-Nov-04 12:03N 51°07' E 001°21'117.2
2018-Nov-04 12:01N 51°07' E 001°23'816.3
2018-Nov-04 11:31N 51°05' E 001°35'818.1
2018-Nov-04 11:03N 50°59' E 001°43'118.2
2018-Nov-04 11:00N 50°58' E 001°45'4 5.5
2018-Nov-04 10:17N 50°58' E 001°51'0 0.0
2018-Nov-04 09:48N 50°58' E 001°51'3 9.0
2018-Nov-04 09:30N 50°58' E 001°47'919.1
2018-Nov-04 09:03N 51°01' E 001°34'118.5
2018-Nov-04 09:00N 51°02' E 001°33'918.4
2018-Nov-04 08:30N 51°07' E 001°21'1 1.2
2018-Nov-04 08:02N 51°07' E 001°20'0 0.0
2018-Nov-04 08:00N 51°07' E 001°20'0 0.0
2018-Nov-04 07:31N 51°07' E 001°20'0 0.0
2018-Nov-04 07:02N 51°07' E 001°20'0 1.2
2018-Nov-04 06:59N 51°07' E 001°20'612.7
2018-Nov-04 06:30N 51°05' E 001°29'818.9
2018-Nov-04 06:03N 51°00' E 001°40'119.1
2018-Nov-04 06:00N 50°60' E 001°41'612.2
2018-Nov-04 05:29N 50°58' E 001°51'0 0.0
2018-Nov-04 05:03N 50°58' E 001°51'0 0.0
2018-Nov-04 04:46N 50°58' E 001°51'1 3.0
2018-Nov-04 04:31N 50°58' E 001°50'816.6
2018-Nov-04 04:03N 50°59' E 001°38'117.2
2018-Nov-04 04:01N 50°60' E 001°37'918.2
2018-Nov-04 03:31N 51°05' E 001°25'4 8.0
2018-Nov-04 03:01N 51°07' E 001°20'0 0.0
2018-Nov-04 02:53N 51°07' E 001°20'0 0.0
2018-Nov-04 02:26N 51°07' E 001°20'0 0.3
2018-Nov-04 02:02N 51°07' E 001°20'0 0.9
2018-Nov-04 02:00N 51°07' E 001°20'815.4
2018-Nov-04 01:30N 51°04' E 001°31'817.6
2018-Nov-04 01:03N 50°60' E 001°42'117.7
2018-Nov-04 01:00N 50°59' E 001°43'510.5
2018-Nov-04 00:30N 50°58' E 001°51'0 0.0
2018-Nov-04 00:03N 50°58' E 001°51'0 0.0
2018-Nov-04 00:00N 50°58' E 001°51'0 0.0
2018-Nov-03 23:30N 50°58' E 001°51'512.1
2018-Nov-03 23:03N 50°58' E 001°43'119.0
2018-Nov-03 23:00N 50°58' E 001°41'816.8
2018-Nov-03 22:30N 51°03' E 001°30'3 1.7
2018-Nov-03 20:30N 51°06' E 001°29'919.1
2018-Nov-03 20:03N 51°01' E 001°40'118.7
2018-Nov-03 20:00N 51°00' E 001°41'713.1
2018-Nov-03 19:30N 50°58' E 001°51'0 0.0
2018-Nov-03 19:03N 50°58' E 001°51'0 0.0
2018-Nov-03 19:00N 50°58' E 001°51'2 3.3
2018-Nov-03 18:30N 50°58' E 001°48'613.9
2018-Nov-03 18:03N 51°01' E 001°40'116.9
2018-Nov-03 18:00N 51°02' E 001°39'918.5
2018-Nov-03 17:30N 51°05' E 001°25'4 8.5
2018-Nov-03 17:03N 51°07' E 001°20'0 0.0
2018-Nov-03 17:00N 51°07' E 001°20'0 0.1
2018-Nov-03 16:30N 51°07' E 001°20'511.9
2018-Nov-03 16:03N 51°05' E 001°28'119.3
2018-Nov-03 16:00N 51°05' E 001°29'1019.2
2018-Nov-03 15:30N 50°59' E 001°42'612.1
2018-Nov-03 15:01N 50°58' E 001°51'0 0.0
2018-Nov-03 15:00N 50°58' E 001°51'0 0.0
2018-Nov-03 14:29N 50°58' E 001°51'3 5.8
2018-Nov-03 14:03N 50°58' E 001°47'117.3
2018-Nov-03 14:00N 50°58' E 001°46'815.6
2018-Nov-03 13:30N 51°01' E 001°34'818.2
2018-Nov-03 13:03N 51°06' E 001°24'119.1
2018-Nov-03 13:00N 51°06' E 001°22'2 3.8
2018-Nov-03 12:30N 51°07' E 001°20'0 0.7
2018-Nov-03 12:03N 51°07' E 001°20'0 1.6
2018-Nov-03 12:00N 51°07' E 001°20'816.7
2018-Nov-03 11:30N 51°04' E 001°33'919.0
2018-Nov-03 11:03N 50°59' E 001°43'118.5
2018-Nov-03 11:01N 50°58' E 001°44'4 7.5
2018-Nov-03 10:26N 50°58' E 001°51'0 0.0
2018-Nov-03 10:03N 50°58' E 001°51'0 0.0
2018-Nov-03 10:00N 50°58' E 001°51'2 3.4
2018-Nov-03 09:30N 50°58' E 001°48'818.5
2018-Nov-03 09:03N 51°00' E 001°35'119.3
2018-Nov-03 09:00N 51°00' E 001°34'917.2
2018-Nov-03 08:30N 51°06' E 001°23'3 5.7
2018-Nov-03 08:03N 51°07' E 001°20'0 0.0
2018-Nov-03 08:00N 51°07' E 001°20'0 0.0
2018-Nov-03 07:31N 51°07' E 001°20'1 2.2
2018-Nov-03 07:03N 51°07' E 001°22'112.8
2018-Nov-03 07:00N 51°07' E 001°23'713.7
2018-Nov-03 06:31N 51°04' E 001°32'918.9
2018-Nov-03 06:03N 50°59' E 001°43'118.2
2018-Nov-03 06:01N 50°58' E 001°44'4 8.3
2018-Nov-03 05:30N 50°58' E 001°51'0 0.0
2018-Nov-03 05:03N 50°58' E 001°51'0 0.0
2018-Nov-03 04:59N 50°58' E 001°51'2 5.0
2018-Nov-03 04:30N 50°58' E 001°47'716.6
2018-Nov-03 04:04N 50°59' E 001°36'115.5
2018-Nov-03 04:00N 50°60' E 001°35'816.0
2018-Nov-03 03:31N 51°05' E 001°25'4 5.6
2018-Nov-03 02:47N 51°07' E 001°20'0 0.0
2018-Nov-03 02:30N 51°07' E 001°20'0 0.7
2018-Nov-03 02:03N 51°07' E 001°20'0 0.1
2018-Nov-03 02:00N 51°07' E 001°20'815.6
2018-Nov-03 01:30N 51°06' E 001°32'715.3
2018-Nov-03 01:03N 51°00' E 001°39'116.1
2018-Nov-03 01:00N 50°60' E 001°40'714.0
2018-Nov-03 00:30N 50°58' E 001°51'0 0.2
2018-Nov-03 00:03N 50°58' E 001°51'0 0.0
2018-Nov-03 00:00N 50°58' E 001°51'0 0.0
2018-Nov-02 23:31N 50°58' E 001°51'3 6.8
2018-Nov-02 23:03N 50°58' E 001°46'117.3
2018-Nov-02 23:01N 50°58' E 001°45'918.4
2018-Nov-02 22:30N 51°02' E 001°32'818.8
2018-Nov-02 22:03N 51°07' E 001°21'1 7.8
2018-Nov-02 21:59N 51°07' E 001°20'0 0.0
2018-Nov-02 21:30N 51°07' E 001°20'0 0.0
2018-Nov-02 21:03N 51°07' E 001°20'0 1.9
2018-Nov-02 21:00N 51°07' E 001°20'714.0
2018-Nov-02 20:30N 51°04' E 001°30'716.2
2018-Nov-02 20:04N 51°00' E 001°40'115.8
2018-Nov-02 20:00N 51°00' E 001°41'613.0
2018-Nov-02 19:31N 50°58' E 001°51'0 0.2
2018-Nov-02 19:00N 50°58' E 001°51'4 7.5
2018-Nov-02 18:31N 50°58' E 001°45'919.0
2018-Nov-02 18:03N 51°00' E 001°32'118.6
2018-Nov-02 18:00N 51°01' E 001°31'918.0
2018-Nov-02 17:30N 51°07' E 001°20'1 1.5
2018-Nov-02 17:03N 51°07' E 001°20'0 0.0
2018-Nov-02 17:01N 51°07' E 001°20'0 0.3
2018-Nov-02 16:31N 51°07' E 001°20'716.4
2018-Nov-02 16:03N 51°04' E 001°31'119.4
2018-Nov-02 16:00N 51°04' E 001°32'1019.1
2018-Nov-02 15:30N 50°58' E 001°45'4 9.1
2018-Nov-02 15:03N 50°58' E 001°51'0 0.0
2018-Nov-02 14:58N 50°58' E 001°51'0 0.5
2018-Nov-02 14:21N 50°58' E 001°51'515.7
2018-Nov-02 14:00N 50°58' E 001°42'918.3
2018-Nov-02 13:30N 51°04' E 001°30'716.3
2018-Nov-02 13:03N 51°07' E 001°20'0 2.0
2018-Nov-02 13:00N 51°07' E 001°20'0 0.0
2018-Nov-02 12:28N 51°07' E 001°20'0 0.0
2018-Nov-02 12:03N 51°07' E 001°20'0 0.6
2018-Nov-02 12:00N 51°07' E 001°20'714.3
2018-Nov-02 11:30N 51°05' E 001°31'818.7
2018-Nov-02 11:03N 50°59' E 001°41'119.1
2018-Nov-02 11:00N 50°59' E 001°42'611.4
2018-Nov-02 10:30N 50°58' E 001°51'0 0.3
2018-Nov-02 09:34N 50°58' E 001°51'214.2
2018-Nov-02 09:27N 50°58' E 001°48'719.1
2018-Nov-02 09:04N 50°59' E 001°36'119.5
2018-Nov-02 09:01N 50°59' E 001°35'1019.1
2018-Nov-02 08:30N 51°05' E 001°23'3 6.3
2018-Nov-02 08:03N 51°07' E 001°20'0 0.0
2018-Nov-02 08:00N 51°07' E 001°20'0 0.0
2018-Nov-02 07:30N 51°07' E 001°20'3 6.0
2018-Nov-02 07:04N 51°07' E 001°24'117.7
2018-Nov-02 07:00N 51°07' E 001°26'714.7
2018-Nov-02 06:30N 51°03' E 001°35'817.6
2018-Nov-02 06:03N 50°58' E 001°46'116.5
2018-Nov-02 06:00N 50°58' E 001°47'3 5.0
2018-Nov-02 05:30N 50°58' E 001°51'0 0.0
2018-Nov-02 05:02N 50°58' E 001°51'0 0.0
2018-Nov-02 04:58N 50°58' E 001°51'1 3.1
2018-Nov-02 04:30N 50°58' E 001°49'817.0
2018-Nov-02 04:03N 50°60' E 001°37'116.4
2018-Nov-02 04:00N 51°00' E 001°36'816.5
2018-Nov-02 03:31N 51°05' E 001°25'4 8.7
2018-Nov-02 03:03N 51°07' E 001°20'0 0.0
2018-Nov-02 03:00N 51°07' E 001°20'0 0.0
2018-Nov-02 02:30N 51°07' E 001°20'0 0.4
2018-Nov-02 02:03N 51°07' E 001°20'0 8.0
2018-Nov-02 02:00N 51°07' E 001°21'816.6
2018-Nov-02 01:30N 51°03' E 001°32'716.1
2018-Nov-02 01:04N 50°59' E 001°42'116.8
2018-Nov-02 01:00N 50°59' E 001°43'116.1
2018-Nov-02 00:56N 50°58' E 001°45'411.8
2018-Nov-02 00:36N 50°58' E 001°51'0 0.2
2018-Nov-02 00:24N 50°58' E 001°51'0 0.0
2018-Nov-02 00:04N 50°58' E 001°51'0 0.0
2018-Nov-01 23:24N 50°58' E 001°51'3 9.6
2018-Nov-01 23:03N 50°58' E 001°46'117.6
2018-Nov-01 23:00N 50°58' E 001°45'917.9
2018-Nov-01 22:30N 51°02' E 001°32'919.0
2018-Nov-01 22:03N 51°07' E 001°21'110.4
2018-Nov-01 22:00N 51°07' E 001°20'0 0.2
2018-Nov-01 21:30N 51°07' E 001°20'2 4.4
2018-Nov-01 21:03N 51°07' E 001°23'118.2
2018-Nov-01 21:01N 51°07' E 001°25'917.7
2018-Nov-01 20:30N 51°03' E 001°37'817.4
2018-Nov-01 20:03N 50°58' E 001°47'117.6
2018-Nov-01 20:00N 50°58' E 001°48'2 2.3
2018-Nov-01 19:15N 50°58' E 001°51'0 0.0
2018-Nov-01 18:54N 50°58' E 001°51'2 5.9
2018-Nov-01 18:31N 50°58' E 001°47'818.5
2018-Nov-01 18:03N 51°02' E 001°36'119.5
2018-Nov-01 18:00N 51°03' E 001°34'1019.3
2018-Nov-01 17:31N 51°07' E 001°21'1 1.1
2018-Nov-01 17:03N 51°07' E 001°20'0 0.0
2018-Nov-01 17:00N 51°07' E 001°20'0 0.1
2018-Nov-01 16:30N 51°07' E 001°20'613.0
2018-Nov-01 16:03N 51°06' E 001°29'118.6
2018-Nov-01 16:00N 51°06' E 001°31'918.1
2018-Nov-01 15:30N 50°59' E 001°40'714.7
2018-Nov-01 15:04N 50°58' E 001°51'0 1.7
2018-Nov-01 14:57N 50°58' E 001°51'0 0.2
2018-Nov-01 14:11N 50°58' E 001°51'212.8
2018-Nov-01 14:00N 50°58' E 001°47'918.1
2018-Nov-01 13:30N 51°00' E 001°33'818.5
2018-Nov-01 13:03N 51°06' E 001°23'118.6
2018-Nov-01 13:01N 51°06' E 001°22'2 3.4
2018-Nov-01 12:30N 51°07' E 001°20'0 0.0
2018-Nov-01 12:03N 51°07' E 001°20'0 0.6
2018-Nov-01 12:00N 51°07' E 001°20'612.5
2018-Nov-01 11:30N 51°05' E 001°29'919.2
2018-Nov-01 11:04N 50°60' E 001°40'119.7
2018-Nov-01 11:00N 50°59' E 001°42'610.1
2018-Nov-01 10:25N 50°58' E 001°51'0 0.0
2018-Nov-01 10:02N 50°58' E 001°51'0 0.0
2018-Nov-01 09:57N 50°58' E 001°51'1 2.1
2018-Nov-01 09:30N 50°58' E 001°50'917.0
2018-Nov-01 08:59N 51°00' E 001°36'918.1
2018-Nov-01 08:31N 51°06' E 001°25'4 7.7
2018-Nov-01 08:03N 51°07' E 001°20'0 0.0
2018-Nov-01 08:00N 51°07' E 001°20'0 0.0
2018-Nov-01 07:29N 51°07' E 001°20'0 0.5
2018-Nov-01 07:03N 51°07' E 001°20'0 9.7
2018-Nov-01 07:00N 51°07' E 001°21'917.9
2018-Nov-01 06:30N 51°03' E 001°34'818.1
2018-Nov-01 06:03N 50°58' E 001°44'117.5
2018-Nov-01 06:01N 50°58' E 001°45'4 7.1
2018-Nov-01 05:30N 50°58' E 001°51'0 0.0
2018-Nov-01 05:03N 50°58' E 001°51'0 0.0
2018-Nov-01 05:00N 50°58' E 001°51'0 0.9
2018-Nov-01 04:30N 50°58' E 001°50'917.9
2018-Nov-01 04:01N 50°60' E 001°37'116.5
2018-Nov-01 03:57N 51°01' E 001°36'716.3
2018-Nov-01 03:31N 51°05' E 001°26'510.3
2018-Nov-01 03:03N 51°07' E 001°20'0 0.0
2018-Nov-01 03:00N 51°07' E 001°20'  
Track history (hours):
 
Tides and Currents Weather Stations Pressure Air Temp Water Temp Dewpoint Dewpoint Depression Visibility Wind Speed Wind Dir Waves Ship Positions

Pride Of Canterbury

Operator: P & O Ferries

Last reported at 2018-Nov-11 02:31 UTC. Time now 2018-Nov-18 16:54 UTC.
Position N 50°58' E 001°52'.

Length 180 m; draft 5.7 m.

Type: Passenger vessel. MMSI: 232001060.

Date/timePositionNaut miles runAvg speedWind from/ knotsBaromVisibWave heightAir tempDewpointWater temp
2018-Nov-11 02:31N 50°58' E 001°52'0 0.0
2018-Nov-11 02:02N 50°58' E 001°52'0 0.0
2018-Nov-11 01:32N 50°58' E 001°52'0 0.0
2018-Nov-11 01:01N 50°58' E 001°52'0 0.0
2018-Nov-11 00:32N 50°58' E 001°52'0 0.0
2018-Nov-10 23:58N 50°58' E 001°52'0 0.0
2018-Nov-10 23:22N 50°58' E 001°52'0 0.0
2018-Nov-10 23:02N 50°58' E 001°52'0 0.0
2018-Nov-10 22:32N 50°58' E 001°52'0 0.0
2018-Nov-10 21:59N 50°58' E 001°52'0 0.0
2018-Nov-10 21:31N 50°58' E 001°52'0 0.0
2018-Nov-10 20:50N 50°58' E 001°52'0 0.0
2018-Nov-10 20:13N 50°58' E 001°52'0 0.0
2018-Nov-10 20:01N 50°58' E 001°52'0 0.2
2018-Nov-10 19:32N 50°58' E 001°52'0 0.0
2018-Nov-10 19:02N 50°58' E 001°52'1 1.3
2018-Nov-10 18:32N 50°58' E 001°51'815.5
2018-Nov-10 18:01N 50°60' E 001°38'918.5
2018-Nov-10 17:32N 51°05' E 001°27'5 8.4
2018-Nov-10 16:57N 51°07' E 001°20'0 0.0
2018-Nov-10 16:32N 51°07' E 001°20'612.0
2018-Nov-10 16:02N 51°06' E 001°29'1019.5
2018-Nov-10 15:32N 50°60' E 001°41'611.6
2018-Nov-10 14:59N 50°58' E 001°51'1 1.4
2018-Nov-10 14:32N 50°58' E 001°50'1019.3
2018-Nov-10 14:02N 51°00' E 001°35'918.3
2018-Nov-10 13:32N 51°06' E 001°24'3 5.7
2018-Nov-10 13:02N 51°07' E 001°20'0 0.5
2018-Nov-10 12:33N 51°07' E 001°20'815.9
2018-Nov-10 12:03N 51°05' E 001°33'918.6
2018-Nov-10 11:32N 50°59' E 001°43'5 8.5
2018-Nov-10 10:58N 50°58' E 001°51'1 1.4
2018-Nov-10 10:33N 50°58' E 001°50'918.6
2018-Nov-10 10:03N 50°58' E 001°35'714.7
2018-Nov-10 09:33N 51°03' E 001°27'611.6
2018-Nov-10 09:01N 51°07' E 001°20'0 0.0
2018-Nov-10 08:25N 51°07' E 001°20'0 0.0
2018-Nov-10 07:20N 51°07' E 001°20'310.4
2018-Nov-10 07:02N 51°07' E 001°25'815.6
2018-Nov-10 06:32N 51°03' E 001°36'815.9
2018-Nov-10 06:03N 50°58' E 001°45'4 7.1
2018-Nov-10 05:32N 50°58' E 001°51'0 0.0
2018-Nov-10 05:02N 50°58' E 001°51'4 8.9
2018-Nov-10 04:32N 50°58' E 001°44'918.0
2018-Nov-10 04:02N 51°03' E 001°32'917.5
2018-Nov-10 03:32N 51°07' E 001°20'0 0.2
2018-Nov-10 03:00N 51°07' E 001°20'0 0.1
2018-Nov-10 02:32N 51°07' E 001°20'3 5.9
2018-Nov-10 02:03N 51°07' E 001°25'611.4
2018-Nov-10 01:33N 51°04' E 001°33'917.2
2018-Nov-10 01:03N 50°59' E 001°43'5 9.8
2018-Nov-10 00:30N 50°58' E 001°52'0 0.0
2018-Nov-09 23:57N 50°58' E 001°52'1 2.2
2018-Nov-09 23:32N 50°58' E 001°50'919.0
2018-Nov-09 23:02N 50°60' E 001°36'816.7
2018-Nov-09 22:33N 51°05' E 001°25'4 6.7
2018-Nov-09 21:57N 51°07' E 001°20'0 0.0
2018-Nov-09 21:32N 51°07' E 001°20'0 0.3
2018-Nov-09 20:59N 51°07' E 001°20'715.7
2018-Nov-09 20:32N 51°06' E 001°31'917.1
2018-Nov-09 20:02N 51°00' E 001°41'611.6
2018-Nov-09 19:30N 50°58' E 001°51'0 0.0
2018-Nov-09 19:00N 50°58' E 001°51'510.4
2018-Nov-09 18:32N 50°58' E 001°43'917.2
2018-Nov-09 18:03N 51°02' E 001°32'816.5
2018-Nov-09 17:32N 51°07' E 001°21'1 1.1
2018-Nov-09 17:01N 51°07' E 001°20'0 0.3
2018-Nov-09 16:28N 51°07' E 001°20'614.7
2018-Nov-09 16:02N 51°05' E 001°29'918.2
2018-Nov-09 15:32N 50°60' E 001°41'612.4
2018-Nov-09 15:02N 50°58' E 001°51'0 0.1
2018-Nov-09 14:28N 50°58' E 001°51'0 0.7
2018-Nov-09 14:02N 50°58' E 001°51'917.5
2018-Nov-09 13:32N 50°60' E 001°37'917.6
2018-Nov-09 13:02N 51°05' E 001°26'4 8.8
2018-Nov-09 12:32N 51°07' E 001°20'0 0.1
2018-Nov-09 12:02N 51°07' E 001°20'611.5
2018-Nov-09 11:33N 51°06' E 001°29'1019.2
2018-Nov-09 11:02N 51°00' E 001°41'7 8.4
2018-Nov-09 10:16N 50°58' E 001°51'0 0.0
2018-Nov-09 09:58N 50°58' E 001°51'2 4.6
2018-Nov-09 09:32N 50°58' E 001°48'816.7
2018-Nov-09 09:02N 51°00' E 001°35'917.5
2018-Nov-09 08:32N 51°06' E 001°24'3 6.2
2018-Nov-09 08:02N 51°07' E 001°20'0 0.0
2018-Nov-09 07:32N 51°07' E 001°20'2 4.2
2018-Nov-09 07:02N 51°07' E 001°23'816.7
2018-Nov-09 06:32N 51°03' E 001°35'816.9
2018-Nov-09 06:03N 50°58' E 001°46'3 6.6
2018-Nov-09 05:32N 50°58' E 001°51'0 0.0
2018-Nov-09 05:02N 50°58' E 001°51'2 4.4
2018-Nov-09 04:32N 50°58' E 001°47'715.2
2018-Nov-09 04:03N 51°00' E 001°36'816.1
2018-Nov-09 03:32N 51°05' E 001°26'4 8.6
2018-Nov-09 03:03N 51°07' E 001°20'0 0.0
2018-Nov-09 02:32N 51°07' E 001°20'0 0.2
2018-Nov-09 02:02N 51°07' E 001°20'713.4
2018-Nov-09 01:32N 51°05' E 001°30'815.5
2018-Nov-09 01:02N 51°00' E 001°40'713.4
2018-Nov-09 00:32N 50°58' E 001°50'0 0.8
2018-Nov-08 23:57N 50°58' E 001°51'1 1.2
2018-Nov-08 23:28N 50°58' E 001°50'919.2
2018-Nov-08 23:00N 51°00' E 001°36'918.9
2018-Nov-08 22:32N 51°06' E 001°25'4 7.2
2018-Nov-08 22:02N 51°07' E 001°20'0 0.3
2018-Nov-08 21:32N 51°07' E 001°20'816.4
2018-Nov-08 21:02N 51°04' E 001°32'1019.7
2018-Nov-08 20:33N 50°58' E 001°45'4 7.4
2018-Nov-08 20:01N 50°58' E 001°51'0 0.0
2018-Nov-08 19:32N 50°58' E 001°51'0 0.0
2018-Nov-08 19:02N 50°58' E 001°51'510.1
2018-Nov-08 18:32N 50°58' E 001°43'917.1
2018-Nov-08 18:02N 51°01' E 001°30'917.5
2018-Nov-08 17:33N 51°07' E 001°21'1 0.9
2018-Nov-08 16:59N 51°07' E 001°20'0 0.2
2018-Nov-08 16:31N 51°07' E 001°20'816.9
2018-Nov-08 16:02N 51°04' E 001°32'919.0
2018-Nov-08 15:32N 50°58' E 001°44'4 6.9
2018-Nov-08 14:54N 50°58' E 001°51'0 0.0
2018-Nov-08 14:26N 50°58' E 001°51'3 8.6
2018-Nov-08 14:02N 50°58' E 001°46'1019.2
2018-Nov-08 13:32N 51°02' E 001°32'918.1
2018-Nov-08 13:02N 51°07' E 001°20'0 0.5
2018-Nov-08 12:09N 51°07' E 001°20'0 1.0
2018-Nov-08 12:03N 51°07' E 001°20'815.3
2018-Nov-08 11:32N 51°04' E 001°31'917.5
2018-Nov-08 11:02N 50°59' E 001°43'5 5.3
2018-Nov-08 10:03N 50°58' E 001°51'0 0.0
2018-Nov-08 09:51N 50°58' E 001°51'1 4.2
2018-Nov-08 09:32N 50°58' E 001°49'918.1
2018-Nov-08 09:02N 50°60' E 001°35'917.6
2018-Nov-08 08:32N 51°05' E 001°24'3 6.0
2018-Nov-08 08:02N 51°07' E 001°20'0 0.1
2018-Nov-08 07:31N 51°07' E 001°20'715.5
2018-Nov-08 07:02N 51°05' E 001°32'1019.4
2018-Nov-08 06:32N 50°59' E 001°44'5 7.9
2018-Nov-08 05:56N 50°58' E 001°51'0 0.3
2018-Nov-08 05:28N 50°58' E 001°51'614.0
2018-Nov-08 05:02N 50°58' E 001°41'917.9
2018-Nov-08 04:32N 51°03' E 001°30'713.6
2018-Nov-08 04:00N 51°07' E 001°20'0 0.0
2018-Nov-08 03:31N 51°07' E 001°20'2 4.7
2018-Nov-08 03:02N 51°07' E 001°24'714.1
2018-Nov-08 02:32N 51°04' E 001°34'917.8
2018-Nov-08 02:02N 50°58' E 001°45'4 7.4
2018-Nov-08 01:27N 50°58' E 001°52'0 0.0
2018-Nov-08 01:00N 50°58' E 001°52'0 0.0
2018-Nov-08 00:43N 50°58' E 001°52'0 0.0
2018-Nov-08 00:32N 50°58' E 001°52'0 0.0
2018-Nov-08 00:27N 50°58' E 001°52'410.8
2018-Nov-08 00:03N 50°58' E 001°45'1019.5
2018-Nov-07 23:32N 51°02' E 001°31'816.8
2018-Nov-07 23:02N 51°07' E 001°20'0 0.0
2018-Nov-07 22:23N 51°07' E 001°20'0 0.8
2018-Nov-07 22:02N 51°07' E 001°20'714.7
2018-Nov-07 21:32N 51°08' E 001°32'917.9
2018-Nov-07 21:02N 51°01' E 001°41'713.5
2018-Nov-07 20:32N 50°58' E 001°51'0 0.1
2018-Nov-07 20:01N 50°58' E 001°51'1 2.1
2018-Nov-07 19:32N 50°58' E 001°49'612.9
2018-Nov-07 19:02N 50°59' E 001°39'917.4
2018-Nov-07 18:32N 51°04' E 001°28'611.8
2018-Nov-07 18:01N 51°07' E 001°20'0 0.0
2018-Nov-07 17:32N 51°07' E 001°20'0 0.0
2018-Nov-07 17:02N 51°07' E 001°20'3 7.1
2018-Nov-07 16:33N 51°06' E 001°25'918.6
2018-Nov-07 16:03N 51°01' E 001°38'917.3
2018-Nov-07 15:32N 50°58' E 001°51'0 0.6
2018-Nov-07 14:55N 50°58' E 001°51'1 1.9
2018-Nov-07 14:33N 50°58' E 001°50'917.5
2018-Nov-07 14:02N 51°01' E 001°36'917.9
2018-Nov-07 13:32N 51°06' E 001°25'3 6.9
2018-Nov-07 13:03N 51°07' E 001°20'0 0.0
2018-Nov-07 12:28N 51°07' E 001°20'2 4.8
2018-Nov-07 12:02N 51°07' E 001°23'713.9
2018-Nov-07 11:32N 51°06' E 001°34'918.2
2018-Nov-07 11:02N 50°59' E 001°44'5 8.8
2018-Nov-07 10:31N 50°58' E 001°51'0 0.3
2018-Nov-07 09:44N 50°58' E 001°51'315.6
2018-Nov-07 09:32N 50°58' E 001°46'918.0
2018-Nov-07 09:02N 51°02' E 001°33'817.0
2018-Nov-07 08:32N 51°07' E 001°22'1 1.3
2018-Nov-07 07:32N 51°07' E 001°20'3 6.0
2018-Nov-07 07:02N 51°07' E 001°25'816.1
2018-Nov-07 06:32N 51°03' E 001°36'815.9
2018-Nov-07 06:02N 50°58' E 001°46'3 6.1
2018-Nov-07 05:30N 50°58' E 001°51'0 0.0
2018-Nov-07 05:02N 50°58' E 001°51'2 4.2
2018-Nov-07 04:32N 50°58' E 001°48'0 0.0
2018-Nov-06 23:30N 50°58' E 001°48'918.3
2018-Nov-06 22:59N 51°01' E 001°34'1111.0
2018-Nov-06 22:00N 51°07' E 001°20'0 0.0
2018-Nov-06 21:30N 51°07' E 001°20'0 1.1
2018-Nov-06 21:03N 51°07' E 001°21'113.0
2018-Nov-06 21:00N 51°07' E 001°22'815.4
2018-Nov-06 20:31N 51°04' E 001°33'716.1
2018-Nov-06 20:04N 50°59' E 001°40'118.5
2018-Nov-06 20:00N 50°58' E 001°42'611.7
2018-Nov-06 19:30N 50°58' E 001°51'0 0.0
2018-Nov-06 19:02N 50°58' E 001°51'0 0.0
2018-Nov-06 18:57N 50°58' E 001°51'4 9.1
2018-Nov-06 18:30N 50°58' E 001°44'817.3
2018-Nov-06 18:04N 51°01' E 001°33'117.9
2018-Nov-06 18:01N 51°02' E 001°32'917.4
2018-Nov-06 17:29N 51°07' E 001°21'0 1.2
2018-Nov-06 17:03N 51°07' E 001°20'0 0.0
2018-Nov-06 17:00N 51°07' E 001°20'0 0.1
2018-Nov-06 16:30N 51°07' E 001°20'613.7
2018-Nov-06 16:03N 51°05' E 001°29'118.8
2018-Nov-06 16:00N 51°05' E 001°30'918.5
2018-Nov-06 15:30N 50°59' E 001°43'511.1
2018-Nov-06 15:01N 50°58' E 001°51'0 0.0
2018-Nov-06 15:00N 50°58' E 001°51'0 0.0
2018-Nov-06 14:29N 50°58' E 001°51'2 5.6
2018-Nov-06 14:03N 50°58' E 001°47'119.1
2018-Nov-06 14:01N 50°58' E 001°46'918.8
2018-Nov-06 13:30N 51°02' E 001°32'817.6
2018-Nov-06 13:03N 51°06' E 001°22'119.4
2018-Nov-06 13:00N 51°07' E 001°20'1 1.5
2018-Nov-06 12:30N 51°07' E 001°20'2 4.4
2018-Nov-06 12:03N 51°07' E 001°23'115.5
2018-Nov-06 12:00N 51°07' E 001°24'917.8
2018-Nov-06 11:30N 51°03' E 001°37'817.2
2018-Nov-06 11:04N 50°58' E 001°47'116.2
2018-Nov-06 11:00N 50°58' E 001°48'2 2.9
2018-Nov-06 10:21N 50°58' E 001°51'0 0.2
2018-Nov-06 09:39N 50°58' E 001°51'110.2
2018-Nov-06 09:30N 50°58' E 001°49'920.7
2018-Nov-06 09:03N 50°58' E 001°34'119.7
2018-Nov-06 09:01N 50°58' E 001°32'918.0
2018-Nov-06 08:30N 51°06' E 001°24'3 6.8
2018-Nov-06 08:03N 51°07' E 001°20'0 0.0
2018-Nov-06 08:00N 51°07' E 001°20'0 0.0
2018-Nov-06 07:30N 51°07' E 001°20'2 3.5
2018-Nov-06 07:04N 51°07' E 001°22'118.4
2018-Nov-06 07:01N 51°07' E 001°24'1019.5
2018-Nov-06 06:30N 51°02' E 001°37'818.0
2018-Nov-06 06:03N 50°58' E 001°49'117.0
2018-Nov-06 06:01N 50°58' E 001°50'1 1.2
2018-Nov-06 05:30N 50°58' E 001°51'0 0.0
2018-Nov-06 05:03N 50°58' E 001°51'0 0.0
2018-Nov-06 04:59N 50°58' E 001°51'0 0.4
2018-Nov-06 04:29N 50°58' E 001°51'715.2
2018-Nov-06 04:03N 50°59' E 001°40'117.5
2018-Nov-06 04:00N 50°59' E 001°39'918.7
2018-Nov-06 03:30N 51°04' E 001°27'5 8.3
2018-Nov-06 02:52N 51°07' E 001°20'0 0.0
2018-Nov-06 02:28N 51°07' E 001°20'0 0.7
2018-Nov-06 02:02N 51°07' E 001°20'0 1.8
2018-Nov-06 02:01N 51°07' E 001°20'815.9
2018-Nov-06 01:30N 51°05' E 001°32'1413.5
2018-Nov-06 00:30N 50°58' E 001°51'0 0.0
2018-Nov-05 23:30N 50°58' E 001°51'4 9.1
2018-Nov-05 23:03N 50°58' E 001°45'121.0
2018-Nov-05 23:01N 50°58' E 001°43'917.5
2018-Nov-05 22:30N 51°02' E 001°31'817.2
2018-Nov-05 22:04N 51°07' E 001°21'1 7.4
2018-Nov-05 21:58N 51°07' E 001°20'0 0.0
2018-Nov-05 21:30N 51°07' E 001°20'0 0.0
2018-Nov-05 21:03N 51°07' E 001°20'0 0.2
2018-Nov-05 20:59N 51°07' E 001°20'613.4
2018-Nov-05 20:30N 51°06' E 001°30'817.7
2018-Nov-05 20:03N 51°01' E 001°39'119.3
2018-Nov-05 20:00N 51°00' E 001°40'713.9
2018-Nov-05 19:30N 50°58' E 001°51'0 0.1
2018-Nov-05 18:59N 50°58' E 001°51'4 9.3
2018-Nov-05 18:30N 50°58' E 001°44'817.2
2018-Nov-05 18:03N 51°01' E 001°33'119.2
2018-Nov-05 18:00N 51°02' E 001°32'917.5
2018-Nov-05 17:30N 51°07' E 001°20'1 1.6
2018-Nov-05 17:03N 51°07' E 001°20'0 0.0
2018-Nov-05 17:00N 51°07' E 001°20'0 0.0
2018-Nov-05 16:30N 51°07' E 001°20'510.5
2018-Nov-05 16:03N 51°06' E 001°27'120.2
2018-Nov-05 16:00N 51°06' E 001°29'1019.6
2018-Nov-05 15:30N 51°00' E 001°41'613.9
2018-Nov-05 15:03N 50°58' E 001°51'0 2.0
2018-Nov-05 15:00N 50°58' E 001°51'0 0.0
2018-Nov-05 14:30N 50°58' E 001°51'1 2.2
2018-Nov-05 14:03N 50°58' E 001°50'116.1
2018-Nov-05 14:01N 50°58' E 001°48'1718.2
2018-Nov-05 13:03N 51°05' E 001°23'120.3
2018-Nov-05 13:00N 51°06' E 001°22'2 2.9
2018-Nov-05 12:22N 51°07' E 001°20'0 0.8
2018-Nov-05 12:02N 51°07' E 001°20'0 0.9
2018-Nov-05 12:00N 51°07' E 001°20'815.6
2018-Nov-05 11:30N 51°05' E 001°32'919.1
2018-Nov-05 11:04N 50°60' E 001°42'118.5
2018-Nov-05 11:00N 50°59' E 001°43'5 9.0
2018-Nov-05 10:27N 50°58' E 001°51'0 0.0
2018-Nov-05 10:00N 50°58' E 001°51'1 1.7
2018-Nov-05 09:31N 50°58' E 001°50'918.9
2018-Nov-05 09:03N 51°00' E 001°36'119.1
2018-Nov-05 09:00N 51°01' E 001°35'1019.3
2018-Nov-05 08:30N 51°06' E 001°23'2 4.2
2018-Nov-05 08:01N 51°07' E 001°20'0 0.0
2018-Nov-05 08:00N 51°07' E 001°20'0 0.0
2018-Nov-05 07:30N 51°07' E 001°20'0 0.0
2018-Nov-05 07:03N 51°07' E 001°20'0 0.0
2018-Nov-05 07:00N 51°07' E 001°20'0 0.0
2018-Nov-05 06:30N 51°07' E 001°20'0 0.0
2018-Nov-05 06:03N 51°07' E 001°20'0 0.0
2018-Nov-05 06:00N 51°07' E 001°20'0 0.0
2018-Nov-05 05:30N 51°07' E 001°20'0 0.0
2018-Nov-05 05:03N 51°07' E 001°20'0 0.0
2018-Nov-05 04:59N 51°07' E 001°20'0 0.0
2018-Nov-05 04:29N 51°07' E 001°20'0 0.0
2018-Nov-05 03:58N 51°07' E 001°20'0 0.0
2018-Nov-05 03:30N 51°07' E 001°20'0 0.0
2018-Nov-05 03:03N 51°07' E 001°20'0 0.0
2018-Nov-05 03:00N 51°07' E 001°20'0 0.0
2018-Nov-05 02:30N 51°07' E 001°20'0 0.3
2018-Nov-05 02:03N 51°07' E 001°20'0 2.8
2018-Nov-05 02:01N 51°07' E 001°20'713.4
2018-Nov-05 01:30N 51°05' E 001°30'919.6
2018-Nov-05 01:03N 50°59' E 001°41'119.6
2018-Nov-05 01:00N 50°59' E 001°43'511.0
2018-Nov-05 00:30N 50°58' E 001°51'0 0.0
2018-Nov-05 00:03N 50°58' E 001°51'0 0.0
2018-Nov-05 00:00N 50°58' E 001°51'0 0.0
2018-Nov-04 23:30N 50°58' E 001°51'3 7.3
2018-Nov-04 23:03N 50°58' E 001°46'119.2
2018-Nov-04 23:00N 50°58' E 001°44'1019.2
2018-Nov-04 22:31N 51°03' E 001°31'817.8
2018-Nov-04 22:03N 51°07' E 001°20'0 9.2
2018-Nov-04 22:00N 51°07' E 001°20'0 0.9
2018-Nov-04 21:30N 51°07' E 001°20'0 0.0
2018-Nov-04 21:03N 51°07' E 001°20'0 0.0
2018-Nov-04 21:00N 51°07' E 001°20'611.9
2018-Nov-04 20:31N 51°05' E 001°29'919.1
2018-Nov-04 20:03N 51°00' E 001°40'118.9
2018-Nov-04 20:01N 50°60' E 001°41'612.1
2018-Nov-04 19:29N 50°58' E 001°51'0 0.0
2018-Nov-04 18:58N 50°58' E 001°51'2 4.3
2018-Nov-04 18:30N 50°58' E 001°48'817.9
2018-Nov-04 18:04N 50°60' E 001°35'119.0
2018-Nov-04 18:01N 51°00' E 001°34'918.8
2018-Nov-04 17:30N 51°06' E 001°23'2 2.2
2018-Nov-04 16:41N 51°07' E 001°20'1 3.1
2018-Nov-04 16:30N 51°07' E 001°21'818.4
2018-Nov-04 16:04N 51°04' E 001°33'119.6
2018-Nov-04 16:01N 51°03' E 001°34'1019.1
2018-Nov-04 15:31N 50°58' E 001°47'3 4.9
2018-Nov-04 14:58N 50°58' E 001°51'0 0.7
2018-Nov-04 14:20N 50°58' E 001°50'415.8
2018-Nov-04 14:03N 50°58' E 001°43'117.9
2018-Nov-04 14:00N 50°58' E 001°42'918.7
2018-Nov-04 13:31N 51°03' E 001°30'716.1
2018-Nov-04 13:03N 51°07' E 001°20'0 0.0
2018-Nov-04 13:00N 51°07' E 001°20'0 0.0
2018-Nov-04 12:30N 51°07' E 001°20'1 2.0
2018-Nov-04 12:03N 51°07' E 001°21'117.2
2018-Nov-04 12:01N 51°07' E 001°23'816.3
2018-Nov-04 11:31N 51°05' E 001°35'818.1
2018-Nov-04 11:03N 50°59' E 001°43'118.2
2018-Nov-04 11:00N 50°58' E 001°45'4 5.5
2018-Nov-04 10:17N 50°58' E 001°51'0 0.0
2018-Nov-04 09:48N 50°58' E 001°51'3 9.0
2018-Nov-04 09:30N 50°58' E 001°47'919.1
2018-Nov-04 09:03N 51°01' E 001°34'118.5
2018-Nov-04 09:00N 51°02' E 001°33'918.4
2018-Nov-04 08:30N 51°07' E 001°21'1 1.2
2018-Nov-04 08:02N 51°07' E 001°20'0 0.0
2018-Nov-04 08:00N 51°07' E 001°20'0 0.0
2018-Nov-04 07:31N 51°07' E 001°20'0 0.0
2018-Nov-04 07:02N 51°07' E 001°20'0 1.2
2018-Nov-04 06:59N 51°07' E 001°20'612.7
2018-Nov-04 06:30N 51°05' E 001°29'818.9
2018-Nov-04 06:03N 51°00' E 001°40'119.1
2018-Nov-04 06:00N 50°60' E 001°41'612.2
2018-Nov-04 05:29N 50°58' E 001°51'0 0.0
2018-Nov-04 05:03N 50°58' E 001°51'0 0.0
2018-Nov-04 04:46N 50°58' E 001°51'1 3.0
2018-Nov-04 04:31N 50°58' E 001°50'816.6
2018-Nov-04 04:03N 50°59' E 001°38'117.2
2018-Nov-04 04:01N 50°60' E 001°37'918.2
2018-Nov-04 03:31N 51°05' E 001°25'4 8.0
2018-Nov-04 03:01N 51°07' E 001°20'0 0.0
2018-Nov-04 02:53N 51°07' E 001°20'0 0.0
2018-Nov-04 02:26N 51°07' E 001°20'0 0.3
2018-Nov-04 02:02N 51°07' E 001°20'0 0.9
2018-Nov-04 02:00N 51°07' E 001°20'815.4
2018-Nov-04 01:30N 51°04' E 001°31'817.6
2018-Nov-04 01:03N 50°60' E 001°42'117.7
2018-Nov-04 01:00N 50°59' E 001°43'510.5
2018-Nov-04 00:30N 50°58' E 001°51'0 0.0
2018-Nov-04 00:03N 50°58' E 001°51'0 0.0
2018-Nov-04 00:00N 50°58' E 001°51'0 0.0
2018-Nov-03 23:30N 50°58' E 001°51'512.1
2018-Nov-03 23:03N 50°58' E 001°43'119.0
2018-Nov-03 23:00N 50°58' E 001°41'816.8
2018-Nov-03 22:30N 51°03' E 001°30'3 1.7
2018-Nov-03 20:30N 51°06' E 001°29'919.1
2018-Nov-03 20:03N 51°01' E 001°40'118.7
2018-Nov-03 20:00N 51°00' E 001°41'713.1
2018-Nov-03 19:30N 50°58' E 001°51'0 0.0
2018-Nov-03 19:03N 50°58' E 001°51'0 0.0
2018-Nov-03 19:00N 50°58' E 001°51'2 3.3
2018-Nov-03 18:30N 50°58' E 001°48'613.9
2018-Nov-03 18:03N 51°01' E 001°40'116.9
2018-Nov-03 18:00N 51°02' E 001°39'918.5
2018-Nov-03 17:30N 51°05' E 001°25'4 8.5
2018-Nov-03 17:03N 51°07' E 001°20'0 0.0
2018-Nov-03 17:00N 51°07' E 001°20'0 0.1
2018-Nov-03 16:30N 51°07' E 001°20'511.9
2018-Nov-03 16:03N 51°05' E 001°28'119.3
2018-Nov-03 16:00N 51°05' E 001°29'1019.2
2018-Nov-03 15:30N 50°59' E 001°42'612.1
2018-Nov-03 15:01N 50°58' E 001°51'0 0.0
2018-Nov-03 15:00N 50°58' E 001°51'0 0.0
2018-Nov-03 14:29N 50°58' E 001°51'3 5.8
2018-Nov-03 14:03N 50°58' E 001°47'117.3
2018-Nov-03 14:00N 50°58' E 001°46'815.6
2018-Nov-03 13:30N 51°01' E 001°34'818.2
2018-Nov-03 13:03N 51°06' E 001°24'119.1
2018-Nov-03 13:00N 51°06' E 001°22'2 3.8
2018-Nov-03 12:30N 51°07' E 001°20'0 0.7
2018-Nov-03 12:03N 51°07' E 001°20'0 1.6
2018-Nov-03 12:00N 51°07' E 001°20'816.7
2018-Nov-03 11:30N 51°04' E 001°33'919.0
2018-Nov-03 11:03N 50°59' E 001°43'118.5
2018-Nov-03 11:01N 50°58' E 001°44'4 7.5
2018-Nov-03 10:26N 50°58' E 001°51'0 0.0
2018-Nov-03 10:03N 50°58' E 001°51'0 0.0
2018-Nov-03 10:00N 50°58' E 001°51'2 3.4
2018-Nov-03 09:30N 50°58' E 001°48'818.5
2018-Nov-03 09:03N 51°00' E 001°35'119.3
2018-Nov-03 09:00N 51°00' E 001°34'917.2
2018-Nov-03 08:30N 51°06' E 001°23'3 5.7
2018-Nov-03 08:03N 51°07' E 001°20'0 0.0
2018-Nov-03 08:00N 51°07' E 001°20'0 0.0
2018-Nov-03 07:31N 51°07' E 001°20'1 2.2
2018-Nov-03 07:03N 51°07' E 001°22'112.8
2018-Nov-03 07:00N 51°07' E 001°23'713.7
2018-Nov-03 06:31N 51°04' E 001°32'918.9
2018-Nov-03 06:03N 50°59' E 001°43'118.2
2018-Nov-03 06:01N 50°58' E 001°44'4 8.3
2018-Nov-03 05:30N 50°58' E 001°51'0 0.0
2018-Nov-03 05:03N 50°58' E 001°51'0 0.0
2018-Nov-03 04:59N 50°58' E 001°51'2 5.0
2018-Nov-03 04:30N 50°58' E 001°47'716.6
2018-Nov-03 04:04N 50°59' E 001°36'115.5
2018-Nov-03 04:00N 50°60' E 001°35'816.0
2018-Nov-03 03:31N 51°05' E 001°25'4 5.6
2018-Nov-03 02:47N 51°07' E 001°20'0 0.0
2018-Nov-03 02:30N 51°07' E 001°20'0 0.7
2018-Nov-03 02:03N 51°07' E 001°20'0 0.1
2018-Nov-03 02:00N 51°07' E 001°20'815.6
2018-Nov-03 01:30N 51°06' E 001°32'715.3
2018-Nov-03 01:03N 51°00' E 001°39'116.1
2018-Nov-03 01:00N 50°60' E 001°40'714.0
2018-Nov-03 00:30N 50°58' E 001°51'0 0.2
2018-Nov-03 00:03N 50°58' E 001°51'0 0.0
2018-Nov-03 00:00N 50°58' E 001°51'0 0.0
2018-Nov-02 23:31N 50°58' E 001°51'3 6.8
2018-Nov-02 23:03N 50°58' E 001°46'117.3
2018-Nov-02 23:01N 50°58' E 001°45'918.4
2018-Nov-02 22:30N 51°02' E 001°32'818.8
2018-Nov-02 22:03N 51°07' E 001°21'1 7.8
2018-Nov-02 21:59N 51°07' E 001°20'0 0.0
2018-Nov-02 21:30N 51°07' E 001°20'0 0.0
2018-Nov-02 21:03N 51°07' E 001°20'0 1.9
2018-Nov-02 21:00N 51°07' E 001°20'714.0
2018-Nov-02 20:30N 51°04' E 001°30'716.2
2018-Nov-02 20:04N 51°00' E 001°40'115.8
2018-Nov-02 20:00N 51°00' E 001°41'613.0
2018-Nov-02 19:31N 50°58' E 001°51'0 0.2
2018-Nov-02 19:00N 50°58' E 001°51'4 7.5
2018-Nov-02 18:31N 50°58' E 001°45'919.0
2018-Nov-02 18:03N 51°00' E 001°32'118.6
2018-Nov-02 18:00N 51°01' E 001°31'918.0
2018-Nov-02 17:30N 51°07' E 001°20'1 1.5
2018-Nov-02 17:03N 51°07' E 001°20'0 0.0
2018-Nov-02 17:01N 51°07' E 001°20'0 0.3
2018-Nov-02 16:31N 51°07' E 001°20'716.4
2018-Nov-02 16:03N 51°04' E 001°31'119.4
2018-Nov-02 16:00N 51°04' E 001°32'1019.1
2018-Nov-02 15:30N 50°58' E 001°45'4 9.1
2018-Nov-02 15:03N 50°58' E 001°51'0 0.0
2018-Nov-02 14:58N 50°58' E 001°51'0 0.5
2018-Nov-02 14:21N 50°58' E 001°51'515.7
2018-Nov-02 14:00N 50°58' E 001°42'918.3
2018-Nov-02 13:30N 51°04' E 001°30'716.3
2018-Nov-02 13:03N 51°07' E 001°20'0 2.0
2018-Nov-02 13:00N 51°07' E 001°20'0 0.0
2018-Nov-02 12:28N 51°07' E 001°20'0 0.0
2018-Nov-02 12:03N 51°07' E 001°20'0 0.6
2018-Nov-02 12:00N 51°07' E 001°20'714.3
2018-Nov-02 11:30N 51°05' E 001°31'818.7
2018-Nov-02 11:03N 50°59' E 001°41'119.1
2018-Nov-02 11:00N 50°59' E 001°42'611.4
2018-Nov-02 10:30N 50°58' E 001°51'0 0.3
2018-Nov-02 09:34N 50°58' E 001°51'214.2
2018-Nov-02 09:27N 50°58' E 001°48'719.1
2018-Nov-02 09:04N 50°59' E 001°36'119.5
2018-Nov-02 09:01N 50°59' E 001°35'1019.1
2018-Nov-02 08:30N 51°05' E 001°23'3 6.3
2018-Nov-02 08:03N 51°07' E 001°20'0 0.0
2018-Nov-02 08:00N 51°07' E 001°20'0 0.0
2018-Nov-02 07:30N 51°07' E 001°20'3 6.0
2018-Nov-02 07:04N 51°07' E 001°24'117.7
2018-Nov-02 07:00N 51°07' E 001°26'714.7
2018-Nov-02 06:30N 51°03' E 001°35'817.6
2018-Nov-02 06:03N 50°58' E 001°46'116.5
2018-Nov-02 06:00N 50°58' E 001°47'3 5.0
2018-Nov-02 05:30N 50°58' E 001°51'0 0.0
2018-Nov-02 05:02N 50°58' E 001°51'0 0.0
2018-Nov-02 04:58N 50°58' E 001°51'1 3.1
2018-Nov-02 04:30N 50°58' E 001°49'817.0
2018-Nov-02 04:03N 50°60' E 001°37'116.4
2018-Nov-02 04:00N 51°00' E 001°36'816.5
2018-Nov-02 03:31N 51°05' E 001°25'4 8.7
2018-Nov-02 03:03N 51°07' E 001°20'0 0.0
2018-Nov-02 03:00N 51°07' E 001°20'0 0.0
2018-Nov-02 02:30N 51°07' E 001°20'0 0.4
2018-Nov-02 02:03N 51°07' E 001°20'0 8.0
2018-Nov-02 02:00N 51°07' E 001°21'816.6
2018-Nov-02 01:30N 51°03' E 001°32'716.1
2018-Nov-02 01:04N 50°59' E 001°42'116.8
2018-Nov-02 01:00N 50°59' E 001°43'116.1
2018-Nov-02 00:56N 50°58' E 001°45'411.8
2018-Nov-02 00:36N 50°58' E 001°51'0 0.2
2018-Nov-02 00:24N 50°58' E 001°51'0 0.0
2018-Nov-02 00:04N 50°58' E 001°51'0 0.0
2018-Nov-01 23:24N 50°58' E 001°51'3 9.6
2018-Nov-01 23:03N 50°58' E 001°46'117.6
2018-Nov-01 23:00N 50°58' E 001°45'917.9
2018-Nov-01 22:30N 51°02' E 001°32'919.0
2018-Nov-01 22:03N 51°07' E 001°21'110.4
2018-Nov-01 22:00N 51°07' E 001°20'0 0.2
2018-Nov-01 21:30N 51°07' E 001°20'2 4.4
2018-Nov-01 21:03N 51°07' E 001°23'118.2
2018-Nov-01 21:01N 51°07' E 001°25'917.7
2018-Nov-01 20:30N 51°03' E 001°37'817.4
2018-Nov-01 20:03N 50°58' E 001°47'117.6
2018-Nov-01 20:00N 50°58' E 001°48'2 2.3
2018-Nov-01 19:15N 50°58' E 001°51'0 0.0
2018-Nov-01 18:54N 50°58' E 001°51'2 5.9
2018-Nov-01 18:31N 50°58' E 001°47'818.5
2018-Nov-01 18:03N 51°02' E 001°36'119.5
2018-Nov-01 18:00N 51°03' E 001°34'1019.3
2018-Nov-01 17:31N 51°07' E 001°21'1 1.1
2018-Nov-01 17:03N 51°07' E 001°20'0 0.0
2018-Nov-01 17:00N 51°07' E 001°20'0 0.1
2018-Nov-01 16:30N 51°07' E 001°20'613.0
2018-Nov-01 16:03N 51°06' E 001°29'118.6
2018-Nov-01 16:00N 51°06' E 001°31'918.1
2018-Nov-01 15:30N 50°59' E 001°40'714.7
2018-Nov-01 15:04N 50°58' E 001°51'0 1.7
2018-Nov-01 14:57N 50°58' E 001°51'0 0.2
2018-Nov-01 14:11N 50°58' E 001°51'212.8
2018-Nov-01 14:00N 50°58' E 001°47'918.1
2018-Nov-01 13:30N 51°00' E 001°33'818.5
2018-Nov-01 13:03N 51°06' E 001°23'118.6
2018-Nov-01 13:01N 51°06' E 001°22'2 3.4
2018-Nov-01 12:30N 51°07' E 001°20'0 0.0
2018-Nov-01 12:03N 51°07' E 001°20'0 0.6
2018-Nov-01 12:00N 51°07' E 001°20'612.5
2018-Nov-01 11:30N 51°05' E 001°29'919.2
2018-Nov-01 11:04N 50°60' E 001°40'119.7
2018-Nov-01 11:00N 50°59' E 001°42'610.1
2018-Nov-01 10:25N 50°58' E 001°51'0 0.0
2018-Nov-01 10:02N 50°58' E 001°51'0 0.0
2018-Nov-01 09:57N 50°58' E 001°51'1 2.1
2018-Nov-01 09:30N 50°58' E 001°50'917.0
2018-Nov-01 08:59N 51°00' E 001°36'918.1
2018-Nov-01 08:31N 51°06' E 001°25'4 7.7
2018-Nov-01 08:03N 51°07' E 001°20'0 0.0
2018-Nov-01 08:00N 51°07' E 001°20'0 0.0
2018-Nov-01 07:29N 51°07' E 001°20'0 0.5
2018-Nov-01 07:03N 51°07' E 001°20'0 9.7
2018-Nov-01 07:00N 51°07' E 001°21'917.9
2018-Nov-01 06:30N 51°03' E 001°34'818.1
2018-Nov-01 06:03N 50°58' E 001°44'117.5
2018-Nov-01 06:01N 50°58' E 001°45'4 7.1
2018-Nov-01 05:30N 50°58' E 001°51'0 0.0
2018-Nov-01 05:03N 50°58' E 001°51'0 0.0
2018-Nov-01 05:00N 50°58' E 001°51'0 0.9
2018-Nov-01 04:30N 50°58' E 001°50'917.9
2018-Nov-01 04:01N 50°60' E 001°37'116.5
2018-Nov-01 03:57N 51°01' E 001°36'716.3
2018-Nov-01 03:31N 51°05' E 001°26'510.3
2018-Nov-01 03:03N 51°07' E 001°20'0 0.0
2018-Nov-01 03:00N 51°07' E 001°20'  

Dump ship's entire track history